< Typhoon 199705 1997 Season Typhoon 199707 >
Typhoon 199706 (NESTOR)
General InformationTrack Information on Google MapsDetailed Wind InformationList of All Images || Disaster Info.ResourceGoogle EarthGE AnimationAtom FeedGeoJSON
Detalied Best Track (Time Zone = UTC)
Year Month Day Hour Lat. Long. Pressure (hPa) Wind (kt) Class Image Chart
1997 6 5 00 9.8 158.9 1010 0 2 Image Chart
1997 6 5 06 9.9 158.4 1008 0 2 Image Chart
1997 6 5 12 9.9 157.9 1008 0 2 Image Chart
1997 6 5 18 9.9 157.4 1008 0 2 Image Chart
1997 6 6 00 9.8 156.6 1008 0 2 Image Chart
1997 6 6 06 9.6 155.5 1008 0 2 Image Chart
1997 6 6 12 9.5 154.4 1008 0 2 Image Chart
1997 6 6 18 9.7 153.2 1008 0 2 Image Chart
1997 6 7 00 10.4 151.9 1008 0 2 Image Chart
1997 6 7 06 11.3 151.0 1006 0 2 Image Chart
1997 6 7 12 12.2 150.6 1004 0 2 Image Chart
1997 6 7 18 12.8 150.4 1000 0 2 Image Chart
1997 6 8 00 13.3 150.2 996 35 3 Image Chart
1997 6 8 06 13.8 150.1 990 45 3 Image Chart
1997 6 8 12 14.2 149.9 985 55 4 Image Chart
1997 6 8 18 14.7 149.7 980 60 4 Image Chart
1997 6 9 00 15.2 149.5 970 70 5 Image Chart
1997 6 9 06 15.6 149.2 960 80 5 Image Chart
1997 6 9 12 16.0 149.1 950 85 5 Image Chart
1997 6 9 18 16.5 149.0 940 90 5 Image Chart
1997 6 10 00 17.2 148.7 935 95 5 Image Chart
1997 6 10 06 17.8 148.0 930 100 5 Image Chart
1997 6 10 12 18.3 147.5 930 100 5 Image Chart
1997 6 10 18 18.9 146.9 930 100 5 Image Chart
1997 6 11 00 19.5 146.2 935 95 5 Image Chart
1997 6 11 06 20.0 145.3 935 90 5 Image Chart
1997 6 11 12 20.6 144.5 935 90 5 Image Chart
1997 6 11 18 21.2 143.6 935 90 5 Image Chart
1997 6 12 00 21.9 143.0 940 85 5 Image Chart
1997 6 12 06 22.9 142.2 945 85 5 Image Chart
1997 6 12 12 23.9 141.8 950 80 5 Image Chart
1997 6 12 15 24.5 141.6 950 80 5 Image Chart
1997 6 12 18 25.1 141.5 955 75 5 Image Chart
1997 6 12 21 25.7 141.5 960 70 5 Image Chart
1997 6 13 00 26.5 141.6 965 70 5 Image Chart
1997 6 13 03 27.2 141.8 965 70 5 Image Chart
1997 6 13 06 28.0 142.1 965 70 5 Image Chart
1997 6 13 09 28.8 142.5 970 65 5 Image Chart
1997 6 13 12 29.6 143.1 970 65 5 Image Chart
1997 6 13 18 31.2 144.5 975 60 4 Image Chart
1997 6 14 00 33.2 146.2 980 55 4 Image Chart
1997 6 14 06 35.1 148.9 985 50 4 Image Chart
1997 6 14 12 36.7 151.7 990 0 6 Image Chart
1997 6 14 18 37.8 155.0 992 0 6 Image Chart
1997 6 15 00 38.6 158.6 994 0 6 Image Chart
1997 6 15 06 39.5 162.8 994 0 6 Image Chart
1997 6 15 12 40.2 166.6 996 0 6 Image Chart
1997 6 15 18 40.5 170.2 998 0 6 Image Chart
1997 6 16 00 41.0 173.5 1000 0 6 Image Chart
1997 6 16 06 41.6 176.4 1000 0 6 Image Chart
1997 6 16 12 42.1 179.4 1000 0 6 Image Chart
1997 6 16 18 43.0 183.2 1000 0 6 Image Chart
Japan Meteorological Agency Best Track Data | Correction Date : 1998-01-19
< Typhoon 199705 1997 Season Typhoon 199707 >

Help